Time;durP1;ratioP1;P1;durP2;ratioP2;P2;SDS_P1;SDS_P2;PMS_P1;PMS_P2;Temp;Humidity;BMP_temperature;BMP_pressure;BME280_temperature;BME280_humidity;BME280_pressure;Samples;Min_cycle;Max_cycle;Signal;HPM_P1;HPM_P2
2021/07/04 00:00:43;;;;;;;7.32;5.93;;;460.90;2380.80;;;;;;5070918;28;20107;-70
2021/07/04 00:03:09;;;;;;;7.90;5.60;;;460.90;2380.80;;;;;;5070590;28;20478;-70
2021/07/04 00:05:41;;;;;;;7.43;6.03;;;436.10;2355.20;;;;;;5070724;28;20478;-67
2021/07/04 00:08:12;;;;;;;6.32;5.57;;;436.10;2355.20;;;;;;5070916;28;20036;-70
2021/07/04 00:10:41;;;;;;;6.50;5.13;;;436.10;2355.20;;;;;;5070507;28;20078;-57
2021/07/04 00:13:07;;;;;;;7.57;6.13;;;436.10;2355.20;;;;;;5070356;28;20035;-61
2021/07/04 00:15:39;;;;;;;8.77;6.88;;;436.10;2355.20;;;;;;5070607;28;20107;-67
2021/07/04 00:18:11;;;;;;;7.50;6.43;;;436.00;2355.20;;;;;;5070658;28;20021;-57
2021/07/04 00:20:38;;;;;;;9.20;6.30;;;436.00;2355.20;;;;;;5070259;28;20025;-56
2021/07/04 00:23:04;;;;;;;6.47;5.25;;;435.90;2355.20;;;;;;5070621;28;20048;-69
2021/07/04 00:25:31;;;;;;;7.07;5.22;;;436.00;2355.20;;;;;;5069859;28;20087;-62
2021/07/04 00:27:57;;;;;;;7.55;5.85;;;436.00;2355.20;;;;;;5070494;28;20098;-65
2021/07/04 00:30:24;;;;;;;6.38;5.78;;;436.00;2355.20;;;;;;5070220;28;20031;-70
2021/07/04 00:32:50;;;;;;;8.57;6.07;;;436.00;2355.20;;;;;;5069959;28;20090;-65
2021/07/04 00:35:17;;;;;;;6.80;5.60;;;436.00;2355.20;;;;;;5070387;28;20070;-67
2021/07/04 00:37:43;;;;;;;7.03;6.00;;;436.00;2355.20;;;;;;5070326;28;20048;-57
2021/07/04 00:40:10;;;;;;;5.82;5.22;;;436.00;2355.20;;;;;;5069949;28;20021;-64
2021/07/04 00:42:37;;;;;;;7.60;6.03;;;436.00;2355.20;;;;;;5070316;28;20064;-67
2021/07/04 00:45:08;;;;;;;5.97;5.38;;;461.30;2380.80;;;;;;5070139;28;20029;-59
2021/07/04 00:47:34;;;;;;;6.68;5.82;;;435.90;2355.20;;;;;;5070088;28;20071;-62
2021/07/04 00:50:00;;;;;;;6.40;5.22;;;435.90;2355.20;;;;;;5069774;28;20052;-59
2021/07/04 00:52:26;;;;;;;6.93;5.82;;;435.80;2355.20;;;;;;5069974;28;20036;-68
2021/07/04 00:54:52;;;;;;;6.93;5.38;;;435.80;2355.20;;;;;;5069831;28;20028;-54
2021/07/04 00:57:18;;;;;;;7.25;4.90;;;435.80;2355.20;;;;;;5069985;28;20078;-55
2021/07/04 00:59:44;;;;;;;8.70;5.38;;;435.80;2355.20;;;;;;5069915;28;20479;-71
2021/07/04 01:02:09;;;;;;;6.47;5.10;;;435.80;2355.20;;;;;;5069981;28;20028;-62
2021/07/04 01:04:35;;;;;;;7.00;5.88;;;435.80;2355.20;;;;;;5069982;28;20366;-66
2021/07/04 01:07:02;;;;;;;6.70;5.35;;;435.90;2355.20;;;;;;5069719;28;20119;-63
2021/07/04 01:09:28;;;;;;;6.78;5.47;;;435.80;2355.20;;;;;;5069789;28;20031;-59
2021/07/04 01:11:54;;;;;;;7.20;4.95;;;435.80;2355.20;;;;;;5069878;28;20029;-61
2021/07/04 01:14:20;;;;;;;6.90;5.45;;;435.80;2355.20;;;;;;5069718;28;20129;-62
2021/07/04 01:16:46;;;;;;;8.13;5.38;;;435.80;2355.20;;;;;;5070710;28;20051;-61
2021/07/04 01:19:16;;;;;;;6.63;5.93;;;435.70;2355.20;;;;;;5073727;28;20031;-60
2021/07/04 01:21:44;;;;;;;7.18;5.60;;;435.70;2355.20;;;;;;5073623;28;20030;-61
2021/07/04 01:24:11;;;;;;;6.75;5.65;;;435.70;2355.20;;;;;;5073212;28;20094;-63
2021/07/04 01:26:38;;;;;;;10.35;6.35;;;435.60;2355.20;;;;;;5073928;28;20036;-64
2021/07/04 01:29:04;;;;;;;5.82;5.13;;;435.60;2355.20;;;;;;5073837;28;20025;-64
2021/07/04 01:31:31;;;;;;;9.20;6.28;;;435.60;2355.20;;;;;;5073367;28;20056;-58
2021/07/04 01:33:56;;;;;;;8.88;5.90;;;435.60;2355.20;;;;;;5073747;28;20086;-63
2021/07/04 01:36:22;;;;;;;8.38;5.45;;;435.60;2355.20;;;;;;5073290;28;20522;-64
2021/07/04 01:38:48;;;;;;;5.85;4.97;;;435.60;2355.20;;;;;;5073155;28;20017;-66
2021/07/04 01:41:14;;;;;;;6.57;5.05;;;435.60;2355.20;;;;;;5073447;28;20100;-64
2021/07/04 01:43:40;;;;;;;7.57;5.97;;;435.70;2355.20;;;;;;5073218;28;20166;-61
2021/07/04 01:46:06;;;;;;;7.00;5.65;;;435.60;2355.20;;;;;;5073613;28;20025;-60
2021/07/04 01:48:31;;;;;;;9.55;5.60;;;435.60;2355.20;;;;;;5073017;28;20433;-58
2021/07/04 01:50:57;;;;;;;6.75;5.32;;;435.50;2355.20;;;;;;5073078;28;20116;-58
2021/07/04 01:53:23;;;;;;;6.47;5.60;;;435.60;2355.20;;;;;;5073023;28;20068;-58
2021/07/04 01:55:49;;;;;;;6.47;5.03;;;435.50;2355.20;;;;;;5072904;28;20032;-58
2021/07/04 01:58:16;;;;;;;7.68;5.18;;;435.50;2355.20;;;;;;5073037;28;20097;-62
2021/07/04 02:00:43;;;;;;;6.50;5.18;;;435.50;2355.20;;;;;;5072733;28;20108;-59
2021/07/04 02:03:11;;;;;;;9.85;5.43;;;435.50;2355.20;;;;;;5072833;28;20031;-64
2021/07/04 02:05:37;;;;;;;7.70;5.05;;;435.50;2355.20;;;;;;5073037;28;20059;-56
2021/07/04 02:08:04;;;;;;;6.25;5.22;;;435.60;2355.20;;;;;;5073061;28;20510;-60
2021/07/04 02:10:32;;;;;;;6.97;5.43;;;435.60;2355.20;;;;;;5072569;28;20082;-58
2021/07/04 02:12:59;;;;;;;9.63;5.90;;;435.60;2355.20;;;;;;5072875;28;20119;-59
2021/07/04 02:15:27;;;;;;;6.75;5.28;;;435.50;2355.20;;;;;;5072926;28;20020;-60
2021/07/04 02:17:53;;;;;;;7.97;5.13;;;435.50;2355.20;;;;;;5072861;28;20035;-60
2021/07/04 02:20:34;;;;;;;7.68;6.22;;;435.50;2355.20;;;;;;5072464;28;20473;-66
2021/07/04 02:23:02;;;;;;;9.25;6.35;;;435.30;2355.20;;;;;;5072322;28;20406;-69
2021/07/04 02:25:28;;;;;;;5.18;4.68;;;435.20;2355.20;;;;;;5072512;28;20571;-59
2021/07/04 02:27:54;;;;;;;9.77;5.05;;;410.50;2355.20;;;;;;5072035;28;20067;-70
2021/07/04 02:30:20;;;;;;;6.13;4.97;;;435.20;2355.20;;;;;;5071670;28;20020;-70
2021/07/04 02:32:46;;;;;;;5.80;5.10;;;435.30;2355.20;;;;;;5072600;28;20514;-70
2021/07/04 02:35:12;;;;;;;7.13;5.28;;;435.30;2355.20;;;;;;5072154;28;20060;-69
2021/07/04 02:37:38;;;;;;;6.63;5.03;;;435.30;2355.20;;;;;;5072255;28;20476;-66
2021/07/04 02:40:04;;;;;;;7.50;5.00;;;435.40;2355.20;;;;;;5072597;28;20021;-70
2021/07/04 02:42:31;;;;;;;10.00;6.60;;;435.40;2355.20;;;;;;5072287;28;20017;-70
2021/07/04 02:44:58;;;;;;;7.38;4.82;;;435.40;2355.20;;;;;;5072304;28;20021;-71
2021/07/04 02:47:25;;;;;;;7.10;5.97;;;435.30;2355.20;;;;;;5072197;28;20050;-69
2021/07/04 02:49:51;;;;;;;8.65;5.45;;;435.30;2355.20;;;;;;5071866;28;20016;-70
2021/07/04 02:52:16;;;;;;;8.50;5.88;;;435.30;2355.20;;;;;;5072036;28;20409;-70
2021/07/04 02:54:42;;;;;;;9.70;5.80;;;435.30;2355.20;;;;;;5071593;28;20028;-68
2021/07/04 02:57:08;;;;;;;9.60;6.35;;;435.30;2355.20;;;;;;5071702;28;20032;-62
2021/07/04 02:59:33;;;;;;;9.85;6.18;;;435.30;2355.20;;;;;;5072082;28;20092;-69
2021/07/04 03:01:59;;;;;;;12.02;7.03;;;435.20;2355.20;;;;;;5071858;28;20031;-68
2021/07/04 03:04:25;;;;;;;9.90;6.07;;;410.50;2355.20;;;;;;5071857;28;20378;-70
2021/07/04 03:06:50;;;;;;;8.10;5.40;;;435.20;2355.20;;;;;;5071531;28;20467;-70
2021/07/04 03:09:16;;;;;;;20.35;6.80;;;435.20;2355.20;;;;;;5071946;28;20032;-70
2021/07/04 03:11:42;;;;;;;8.43;5.93;;;435.20;2355.20;;;;;;5071567;28;20029;-71
2021/07/04 03:14:08;;;;;;;12.85;5.70;;;435.30;2355.20;;;;;;5071407;28;20023;-58
2021/07/04 03:16:34;;;;;;;6.97;5.78;;;435.30;2355.20;;;;;;5071703;28;20035;-70
2021/07/04 03:18:59;;;;;;;9.02;5.75;;;435.30;2355.20;;;;;;5071465;28;20078;-69
2021/07/04 03:21:25;;;;;;;8.32;6.00;;;435.30;2355.20;;;;;;5071579;28;20356;-70
2021/07/04 03:23:51;;;;;;;6.53;5.03;;;435.40;2355.20;;;;;;5071097;28;20048;-67
2021/07/04 03:26:16;;;;;;;7.82;6.13;;;435.50;2355.20;;;;;;5071410;28;20025;-69
2021/07/04 03:28:42;;;;;;;7.03;6.00;;;461.00;2380.80;;;;;;5071278;28;20033;-69
2021/07/04 03:31:08;;;;;;;9.10;6.07;;;435.60;2355.20;;;;;;5071155;28;20025;-58
2021/07/04 03:33:33;;;;;;;9.07;5.75;;;435.70;2355.20;;;;;;5071462;28;20027;-67
2021/07/04 03:35:59;;;;;;;11.77;5.22;;;435.80;2355.20;;;;;;5070945;28;20096;-68
2021/07/04 03:38:25;;;;;;;6.45;5.43;;;435.80;2355.20;;;;;;5071144;28;20029;-66
2021/07/04 03:40:51;;;;;;;7.75;5.50;;;435.90;2355.20;;;;;;5070577;28;20059;-68
2021/07/04 03:43:17;;;;;;;8.88;6.47;;;436.00;2355.20;;;;;;5071181;28;20161;-68
2021/07/04 03:45:42;;;;;;;7.68;5.70;;;436.00;2355.20;;;;;;5070960;28;20032;-67
2021/07/04 03:48:08;;;;;;;7.72;5.93;;;436.00;2355.20;;;;;;5070588;28;20071;-62
2021/07/04 03:50:34;;;;;;;10.23;5.95;;;460.80;2380.80;;;;;;5070909;28;20080;-68
2021/07/04 03:53:01;;;;;;;6.95;5.53;;;460.90;2380.80;;;;;;5070582;28;20057;-69
2021/07/04 03:55:26;;;;;;;7.88;5.90;;;460.90;2380.80;;;;;;5070869;28;20035;-69
2021/07/04 03:57:52;;;;;;;12.23;6.28;;;460.80;2380.80;;;;;;5070674;28;20028;-67
2021/07/04 04:00:19;;;;;;;9.30;6.32;;;461.00;2380.80;;;;;;5070595;28;20074;-68
2021/07/04 04:02:45;;;;;;;10.27;6.38;;;461.00;2380.80;;;;;;5070857;28;20025;-68
2021/07/04 04:05:12;;;;;;;11.00;7.18;;;461.10;2380.80;;;;;;5052076;28;20872;-66
2021/07/04 04:07:38;;;;;;;9.85;6.00;;;461.10;2380.80;;;;;;5070600;28;20174;-67
2021/07/04 04:10:08;;;;;;;8.27;6.35;;;461.20;2380.80;;;;;;5070698;28;20032;-66
2021/07/04 04:12:34;;;;;;;8.68;6.10;;;461.30;2380.80;;;;;;5070679;28;20033;-68
2021/07/04 04:15:00;;;;;;;7.25;5.45;;;461.30;2380.80;;;;;;5070242;28;20031;-65
2021/07/04 04:17:27;;;;;;;7.55;5.80;;;461.40;2380.80;;;;;;5070414;28;20542;-69
2021/07/04 04:19:53;;;;;;;9.23;5.72;;;461.50;2380.80;;;;;;5070452;28;20075;-68
2021/07/04 04:22:20;;;;;;;7.55;5.38;;;461.50;2380.80;;;;;;5070197;28;20434;-66
2021/07/04 04:24:45;;;;;;;7.38;4.35;;;461.60;2380.80;;;;;;5070167;28;20057;-67
2021/07/04 04:27:11;;;;;;;7.82;5.25;;;461.70;2380.80;;;;;;5052127;28;20509;-70
2021/07/04 04:29:38;;;;;;;8.70;5.50;;;486.50;2380.80;;;;;;5070395;28;20132;-61
2021/07/04 04:32:04;;;;;;;7.90;5.13;;;486.50;2380.80;;;;;;5070416;28;20446;-65
2021/07/04 04:34:30;;;;;;;6.60;5.25;;;486.70;2380.80;;;;;;5070069;28;20111;-67
2021/07/04 04:36:56;;;;;;;14.02;5.75;;;487.20;2380.80;;;;;;5070249;28;20063;-66
2021/07/04 04:39:22;;;;;;;5.55;4.57;;;614.70;2201.60;;;;;;5069984;28;20044;-62
2021/07/04 04:41:49;;;;;;;6.32;5.60;;;666.30;1868.80;;;;;;5069858;28;20052;-63
2021/07/04 04:44:15;;;;;;;7.93;5.68;;;716.80;1740.80;;;;;;5070294;28;20024;-69
2021/07/04 04:46:40;;;;;;;6.72;4.95;;;717.40;1689.60;;;;;;5070093;28;20051;-66
2021/07/04 04:49:06;;;;;;;5.80;4.63;;;742.50;1664.00;;;;;;5070248;28;20470;-69
2021/07/04 04:51:32;;;;;;;6.03;5.18;;;743.10;1612.80;;;;;;5069012;28;20028;-70
2021/07/04 04:53:58;;;;;;;6.13;5.50;;;793.70;1510.40;;;;;;5069769;28;20024;-67
2021/07/04 04:56:24;;;;;;;7.10;5.63;;;793.90;1484.80;;;;;;5070064;28;20059;-68
2021/07/04 04:58:50;;;;;;;7.47;5.72;;;794.20;1459.20;;;;;;5069725;28;20024;-69
2021/07/04 05:01:16;;;;;;;6.28;5.63;;;819.20;1408.00;;;;;;5070174;28;20039;-70
2021/07/04 05:03:41;;;;;;;6.70;6.10;;;794.20;1408.00;;;;;;5070015;28;20028;-68
2021/07/04 05:06:07;;;;;;;9.70;8.75;;;819.70;1356.80;;;;;;5070146;28;20035;-68
2021/07/04 05:08:33;;;;;;;6.70;6.07;;;819.60;1331.20;;;;;;5070052;28;20412;-69
2021/07/04 05:10:58;;;;;;;7.30;6.70;;;844.90;1331.20;;;;;;5069759;28;20021;-70
2021/07/04 05:13:24;;;;;;;8.05;6.90;;;845.20;1280.00;;;;;;5070212;28;20047;-57
2021/07/04 05:15:50;;;;;;;8.05;7.32;;;870.90;1203.20;;;;;;5069855;28;20402;-63
2021/07/04 05:18:16;;;;;;;7.60;6.97;;;896.40;1152.00;;;;;;5069832;28;20013;-67
2021/07/04 05:20:42;;;;;;;9.48;8.48;;;922.20;1075.20;;;;;;5069306;28;20035;-57
2021/07/04 05:23:08;;;;;;;10.05;9.13;;;896.90;1075.20;;;;;;5069527;28;20060;-60
2021/07/04 05:25:34;;;;;;;9.30;8.45;;;896.60;1100.80;;;;;;5068399;28;20052;-63
2021/07/04 05:28:00;;;;;;;7.75;7.15;;;896.90;1075.20;;;;;;5067977;28;20035;-65
2021/07/04 05:30:25;;;;;;;8.60;7.97;;;921.90;1075.20;;;;;;5068361;28;20035;-66
2021/07/04 05:32:51;;;;;;;7.95;7.35;;;947.90;1024.00;;;;;;5067732;28;20115;-61
2021/07/04 05:35:17;;;;;;;9.13;8.32;;;948.00;998.40;;;;;;5069658;28;20029;-63
2021/07/04 05:37:42;;;;;;;8.90;8.13;;;947.60;1049.60;;;;;;5069701;28;20031;-60
2021/07/04 05:40:14;;;;;;;10.00;9.20;;;972.90;1024.00;;;;;;5069476;28;20021;-63
2021/07/04 05:42:41;;;;;;;9.20;8.35;;;998.80;972.80;;;;;;5068877;28;20033;-65
2021/07/04 05:45:10;;;;;;;9.02;7.05;;;998.60;998.40;;;;;;5069840;28;20048;-60
2021/07/04 05:47:37;;;;;;;8.02;7.32;;;999.00;947.20;;;;;;5070215;28;20033;-63
2021/07/04 05:50:04;;;;;;;8.40;7.22;;;1024.40;921.60;;;;;;5068525;28;20021;-64
2021/07/04 05:52:31;;;;;;;6.82;6.22;;;1075.40;870.40;;;;;;5069005;28;20029;-66
2021/07/04 05:54:57;;;;;;;8.20;6.22;;;1050.50;870.40;;;;;;5069522;28;20044;-65
2021/07/04 05:57:22;;;;;;;7.97;7.28;;;1075.20;844.80;;;;;;5069164;28;20115;-63
2021/07/04 05:59:48;;;;;;;8.68;7.95;;;1049.90;870.40;;;;;;5068564;28;20052;-57
2021/07/04 06:02:14;;;;;;;9.43;8.73;;;1075.50;819.20;;;;;;5066226;28;20037;-67
2021/07/04 06:04:40;;;;;;;10.77;9.68;;;1075.20;819.20;;;;;;5072924;28;20033;-63
2021/07/04 06:07:06;;;;;;;10.05;9.13;;;1101.20;793.60;;;;;;5072805;28;20170;-65
2021/07/04 06:09:31;;;;;;;12.38;11.05;;;1126.50;768.00;;;;;;5072781;28;20056;-63
2021/07/04 06:11:57;;;;;;;13.80;12.85;;;1152.10;742.40;;;;;;5072151;28;20108;-60
2021/07/04 06:14:23;;;;;;;11.35;10.55;;;1126.40;768.00;;;;;;5073041;28;20383;-63
2021/07/04 06:16:49;;;;;;;11.93;11.02;;;1126.70;768.00;;;;;;5072825;28;20035;-61
2021/07/04 06:19:15;;;;;;;12.13;11.05;;;1101.50;768.00;;;;;;5072789;28;20036;-60
2021/07/04 06:21:41;;;;;;;12.25;11.35;;;1100.90;793.60;;;;;;5072468;28;20119;-62
2021/07/04 06:24:07;;;;;;;12.52;11.60;;;1101.70;742.40;;;;;;5072465;28;20521;-59
2021/07/04 06:26:33;;;;;;;11.63;10.75;;;1126.90;742.40;;;;;;5054540;28;20045;-64
2021/07/04 06:28:59;;;;;;;13.52;12.45;;;1127.00;742.40;;;;;;5072249;28;20039;-60
2021/07/04 06:31:28;;;;;;;13.18;12.18;;;1126.60;742.40;;;;;;5072513;28;20017;-58
2021/07/04 06:33:57;;;;;;;13.43;12.52;;;1126.50;768.00;;;;;;5072477;28;20470;-61
2021/07/04 06:36:24;;;;;;;13.52;12.52;;;1101.00;768.00;;;;;;5072204;28;20028;-63
2021/07/04 06:38:50;;;;;;;12.05;11.25;;;1126.70;742.40;;;;;;5070837;28;20036;-57
2021/07/04 06:41:15;;;;;;;13.15;12.32;;;1177.70;665.60;;;;;;5070660;28;20021;-62
2021/07/04 06:43:42;;;;;;;13.40;12.60;;;1177.70;665.60;;;;;;5070376;28;20033;-67
2021/07/04 06:46:08;;;;;;;13.75;12.85;;;1152.90;665.60;;;;;;5070772;28;20025;-60
2021/07/04 06:48:34;;;;;;;13.65;12.80;;;1203.20;665.60;;;;;;5071979;28;20455;-61
2021/07/04 06:51:00;;;;;;;13.77;12.88;;;1178.10;665.60;;;;;;5072274;28;20103;-65
2021/07/04 06:53:25;;;;;;;13.85;12.98;;;1152.50;691.20;;;;;;5072020;28;20469;-67
2021/07/04 06:55:51;;;;;;;13.23;12.32;;;1152.90;665.60;;;;;;5071913;28;20028;-70
2021/07/04 06:58:17;;;;;;;12.35;11.52;;;1152.20;691.20;;;;;;5071933;28;20111;-62
2021/07/04 07:00:43;;;;;;;14.38;13.18;;;1177.80;665.60;;;;;;5071882;28;20027;-66
2021/07/04 07:03:08;;;;;;;13.15;12.23;;;1152.50;691.20;;;;;;5071844;28;20123;-59
2021/07/04 07:05:34;;;;;;;13.95;12.82;;;1101.70;716.80;;;;;;5071131;28;20458;-65
2021/07/04 07:08:00;;;;;;;13.05;12.02;;;1127.30;691.20;;;;;;5051472;28;20076;-60
2021/07/04 07:10:25;;;;;;;12.10;11.27;;;1152.60;691.20;;;;;;5070136;28;20107;-68
2021/07/04 07:12:51;;;;;;;11.73;10.93;;;1152.60;691.20;;;;;;5069941;28;20038;-60
2021/07/04 07:15:17;;;;;;;11.02;10.15;;;1177.80;640.00;;;;;;5069538;28;20020;-70
2021/07/04 07:17:42;;;;;;;11.32;10.57;;;1152.60;614.40;;;;;;5069519;28;20059;-68
2021/07/04 07:20:09;;;;;;;11.80;10.93;;;1152.70;640.00;;;;;;5069027;28;20092;-65
2021/07/04 07:22:35;;;;;;;10.50;9.70;;;1203.30;640.00;;;;;;5069385;28;20025;-70
2021/07/04 07:25:01;;;;;;;11.38;10.68;;;1178.30;614.40;;;;;;5069634;28;20048;-65
2021/07/04 07:27:27;;;;;;;10.55;9.80;;;1203.70;588.80;;;;;;5069792;28;20448;-56
2021/07/04 07:29:52;;;;;;;11.13;10.40;;;1178.30;588.80;;;;;;5069681;28;20401;-68
2021/07/04 07:32:18;;;;;;;11.18;10.27;;;1152.50;640.00;;;;;;5069793;28;20035;-63
2021/07/04 07:34:44;;;;;;;10.40;9.60;;;1177.80;640.00;;;;;;5069253;28;20423;-64
2021/07/04 07:37:10;;;;;;;9.88;9.25;;;1177.80;614.40;;;;;;5069444;28;20058;-69
2021/07/04 07:39:35;;;;;;;9.73;9.02;;;1203.40;588.80;;;;;;5069657;28;20425;-64
2021/07/04 07:42:02;;;;;;;10.73;10.02;;;1229.40;563.20;;;;;;5069459;28;20052;-60
2021/07/04 07:44:28;;;;;;;10.90;9.93;;;1178.30;588.80;;;;;;5069346;28;20473;-63
2021/07/04 07:46:53;;;;;;;9.68;8.98;;;1178.10;588.80;;;;;;5068938;28;20120;-59
2021/07/04 07:49:19;;;;;;;9.80;9.20;;;1152.10;640.00;;;;;;5069266;28;20031;-62
2021/07/04 07:51:49;;;;;;;9.32;8.73;;;1178.30;588.80;;;;;;5069331;28;20024;-62
2021/07/04 07:54:16;;;;;;;9.40;8.70;;;1152.40;614.40;;;;;;5069282;28;20695;-59
2021/07/04 07:56:42;;;;;;;9.82;8.98;;;1203.20;588.80;;;;;;5069230;28;20060;-67
2021/07/04 07:59:07;;;;;;;8.50;7.78;;;1178.50;588.80;;;;;;5068744;28;20155;-57
2021/07/04 08:01:33;;;;;;;10.10;9.18;;;1152.90;614.40;;;;;;5069030;28;20111;-56
2021/07/04 08:03:59;;;;;;;8.93;8.27;;;1152.70;614.40;;;;;;5068951;28;20039;-64
2021/07/04 08:06:25;;;;;;;9.45;8.73;;;1178.00;614.40;;;;;;5060233;28;20028;-59
2021/07/04 08:08:50;;;;;;;9.27;8.48;;;1203.20;588.80;;;;;;5057098;28;20576;-57
2021/07/04 08:11:16;;;;;;;8.98;8.27;;;1152.40;614.40;;;;;;5058786;28;20070;-59
2021/07/04 08:13:42;;;;;;;8.60;7.80;;;1126.80;665.60;;;;;;5056340;28;20475;-57
2021/07/04 08:16:08;;;;;;;9.55;8.68;;;1127.00;665.60;;;;;;5057778;28;20360;-57
2021/07/04 08:18:34;;;;;;;8.32;7.63;;;1075.70;665.60;;;;;;5060060;28;20029;-66
2021/07/04 08:20:59;;;;;;;8.68;7.97;;;1049.80;742.40;;;;;;5057948;28;20017;-56
2021/07/04 08:23:25;;;;;;;6.60;6.00;;;973.40;819.20;;;;;;5059005;28;20035;-65
2021/07/04 08:25:51;;;;;;;6.45;5.85;;;947.30;844.80;;;;;;5059270;28;20116;-66
2021/07/04 08:28:17;;;;;;;6.20;5.50;;;921.90;896.00;;;;;;5057889;28;20033;-62
2021/07/04 08:30:45;;;;;;;6.65;6.05;;;921.60;921.60;;;;;;5059632;28;20028;-68
2021/07/04 08:33:11;;;;;;;5.50;4.97;;;896.40;896.00;;;;;;5059235;28;20035;-62
2021/07/04 08:35:37;;;;;;;6.13;5.38;;;871.20;896.00;;;;;;5057879;28;20025;-66
2021/07/04 08:38:04;;;;;;;5.13;4.63;;;870.90;972.80;;;;;;5041150;28;20032;-57
2021/07/04 08:40:30;;;;;;;6.60;5.38;;;870.90;972.80;;;;;;5064729;28;20024;-59
2021/07/04 08:42:55;;;;;;;7.63;4.75;;;845.70;972.80;;;;;;5060990;28;20025;-63
2021/07/04 08:45:21;;;;;;;6.05;5.18;;;845.20;972.80;;;;;;5049391;28;20116;-62
2021/07/04 08:47:47;;;;;;;5.82;5.32;;;844.90;998.40;;;;;;5049476;28;20040;-66
2021/07/04 08:50:13;;;;;;;5.35;4.85;;;844.90;998.40;;;;;;5057902;28;20059;-65
2021/07/04 08:52:40;;;;;;;6.50;5.57;;;845.20;998.40;;;;;;5057578;28;20026;-65
2021/07/04 08:55:08;;;;;;;7.05;4.88;;;845.40;998.40;;;;;;5058734;28;20044;-63
2021/07/04 08:57:33;;;;;;;6.30;5.22;;;844.90;1024.00;;;;;;5059900;28;20078;-68
2021/07/04 08:59:59;;;;;;;5.72;5.13;;;845.10;947.20;;;;;;5057738;28;20104;-63
2021/07/04 09:02:37;;;;;;;5.10;4.63;;;819.90;947.20;;;;;;5040261;28;20028;-58
2021/07/04 09:05:09;;;;;;;5.88;5.28;;;845.00;998.40;;;;;;5063698;28;20024;-66
2021/07/04 09:07:37;;;;;;;5.90;5.40;;;820.10;972.80;;;;;;5059358;28;20045;-58
2021/07/04 09:10:32;;;;;;;6.47;4.97;;;820.10;998.40;;;;;;5058006;28;20102;-57
2021/07/04 09:12:58;;;;;;;5.72;5.13;;;844.80;972.80;;;;;;5017605;28;20029;-59
2021/07/04 09:15:26;;;;;;;7.50;5.30;;;845.50;998.40;;;;;;5016372;28;20050;-56
2021/07/04 09:17:57;;;;;;;10.63;7.13;;;845.50;1024.00;;;;;;5015361;28;20522;-60
2021/07/04 09:20:28;;;;;;;6.10;4.10;;;870.50;921.60;;;;;;5016650;28;20029;-63
2021/07/04 09:22:54;;;;;;;12.63;7.50;;;845.20;921.60;;;;;;5017120;28;20046;-59
2021/07/04 09:25:26;;;;;;;5.65;4.88;;;845.20;947.20;;;;;;5015364;28;20061;-69
2021/07/04 09:28:16;;;;;;;9.15;6.55;;;844.90;972.80;;;;;;5015330;28;20041;-62
2021/07/04 09:30:45;;;;;;;6.60;4.00;;;844.90;972.80;;;;;;5021034;28;20069;-57
2021/07/04 09:33:18;;;;;;;4.68;4.22;;;845.00;921.60;;;;;;5015743;28;20045;-58
2021/07/04 09:36:08;;;;;;;5.25;4.15;;;844.90;921.60;;;;;;5019627;28;20137;-57
2021/07/04 09:38:36;;;;;;;5.35;4.50;;;844.90;947.20;;;;;;4986131;28;20488;-57
2021/07/04 09:41:04;;;;;;;6.20;4.82;;;820.10;921.60;;;;;;4988693;28;20046;-60
2021/07/04 09:43:31;;;;;;;5.68;4.50;;;820.10;921.60;;;;;;4988643;28;20026;-57
2021/07/04 09:45:58;;;;;;;5.07;4.57;;;819.80;947.20;;;;;;4988802;28;20026;-64
2021/07/04 09:48:30;;;;;;;6.50;4.97;;;819.50;947.20;;;;;;4989941;28;20030;-65
2021/07/04 09:50:58;;;;;;;5.15;4.65;;;819.20;947.20;;;;;;5007918;28;20033;-58
2021/07/04 09:53:34;;;;;;;6.20;4.63;;;819.80;972.80;;;;;;5009174;28;20566;-57
2021/07/04 09:56:18;;;;;;;5.13;4.32;;;819.80;998.40;;;;;;5009274;28;20492;-57
2021/07/04 10:02:16;;;;;;;6.03;4.53;;;820.10;947.20;;;;;;5007638;28;20049;-67
2021/07/04 10:07:52;;;;;;;5.43;4.25;;;845.40;972.80;;;;;;4983329;28;20065;-63
2021/07/04 10:10:18;;;;;;;4.80;4.30;;;870.50;947.20;;;;;;5008963;28;20077;-61
2021/07/04 10:12:43;;;;;;;5.63;5.10;;;870.40;896.00;;;;;;5009298;28;20116;-65
2021/07/04 10:15:09;;;;;;;5.65;4.72;;;845.40;896.00;;;;;;5029206;28;20043;-59
2021/07/04 10:17:36;;;;;;;5.93;4.90;;;845.70;896.00;;;;;;5071238;28;20021;-63
2021/07/04 10:20:05;;;;;;;5.18;4.68;;;870.50;870.40;;;;;;5070951;28;20043;-59
2021/07/04 10:22:37;;;;;;;5.68;5.15;;;870.40;870.40;;;;;;5070944;28;20033;-60
2021/07/04 10:25:08;;;;;;;5.47;4.50;;;870.40;896.00;;;;;;5070949;28;20060;-65
2021/07/04 10:27:37;;;;;;;9.80;5.65;;;845.70;921.60;;;;;;5070545;28;20036;-66
2021/07/04 10:30:05;;;;;;;7.18;4.75;;;845.30;947.20;;;;;;5071129;28;20080;-63
2021/07/04 10:32:30;;;;;;;6.82;5.60;;;845.20;947.20;;;;;;5072061;28;20031;-65
2021/07/04 10:35:10;;;;;;;8.23;4.75;;;845.40;921.60;;;;;;5075150;28;20033;-57
2021/07/04 10:37:38;;;;;;;6.93;5.18;;;845.20;947.20;;;;;;5075764;28;20389;-66
2021/07/04 10:40:19;;;;;;;6.53;4.95;;;845.10;972.80;;;;;;5074999;28;20031;-64
2021/07/04 10:42:45;;;;;;;6.55;5.00;;;845.00;947.20;;;;;;5075792;28;20024;-57
2021/07/04 10:45:37;;;;;;;8.52;4.88;;;844.90;947.20;;;;;;5074891;28;20459;-61
2021/07/04 10:48:21;;;;;;;4.55;3.97;;;820.10;972.80;;;;;;5074811;28;20116;-65
2021/07/04 10:51:07;;;;;;;6.28;5.25;;;819.40;947.20;;;;;;5074028;28;20031;-61
2021/07/04 10:53:44;;;;;;;4.93;4.40;;;819.60;947.20;;;;;;5074509;28;20513;-66
2021/07/04 10:56:35;;;;;;;5.05;4.50;;;819.30;972.80;;;;;;5074967;28;20033;-63
2021/07/04 10:59:10;;;;;;;5.72;4.63;;;819.20;947.20;;;;;;5074609;28;20023;-61
2021/07/04 11:02:00;;;;;;;6.18;5.18;;;819.40;972.80;;;;;;5075009;28;20025;-64
2021/07/04 11:04:49;;;;;;;5.13;4.68;;;819.70;998.40;;;;;;5074905;28;20024;-64
2021/07/04 11:08:05;;;;;;;5.43;4.40;;;819.60;921.60;;;;;;5059898;28;20037;-65
2021/07/04 11:10:36;;;;;;;5.78;4.95;;;819.80;972.80;;;;;;5069596;28;20056;-67
2021/07/04 11:13:08;;;;;;;8.65;5.22;;;819.80;998.40;;;;;;5070040;28;20025;-64
2021/07/04 11:15:36;;;;;;;7.53;4.45;;;819.80;998.40;;;;;;5070241;28;20476;-63
2021/07/04 11:18:07;;;;;;;7.65;5.00;;;819.90;998.40;;;;;;5069947;28;20039;-65
2021/07/04 11:20:38;;;;;;;4.93;4.43;;;820.00;1024.00;;;;;;5069435;28;20074;-61
2021/07/04 11:23:10;;;;;;;4.72;4.20;;;844.90;1024.00;;;;;;5070063;28;20025;-56
2021/07/04 11:25:52;;;;;;;5.38;4.88;;;820.10;1024.00;;;;;;5069850;28;20056;-62
2021/07/04 11:28:20;;;;;;;6.20;4.40;;;845.10;972.80;;;;;;5052675;28;20055;-69
2021/07/04 11:30:51;;;;;;;7.40;5.05;;;845.20;972.80;;;;;;5069854;28;20032;-59
2021/07/04 11:33:27;;;;;;;7.20;4.35;;;845.60;998.40;;;;;;5069350;28;20027;-68
2021/07/04 11:36:00;;;;;;;6.18;5.10;;;845.50;972.80;;;;;;5069871;28;20024;-68
2021/07/04 11:38:29;;;;;;;5.07;4.57;;;845.40;947.20;;;;;;5069583;28;20082;-62
2021/07/04 11:40:56;;;;;;;6.75;5.50;;;845.20;972.80;;;;;;5069650;28;20028;-69
2021/07/04 11:43:24;;;;;;;6.00;4.65;;;845.00;1024.00;;;;;;5051650;28;20035;-62
2021/07/04 11:45:55;;;;;;;5.72;5.22;;;844.90;1075.20;;;;;;5068731;28;20074;-65
2021/07/04 11:48:41;;;;;;;6.38;4.80;;;820.10;998.40;;;;;;5069282;28;20046;-60
2021/07/04 11:51:07;;;;;;;6.65;5.70;;;820.10;1024.00;;;;;;5069640;28;20493;-62
2021/07/04 11:53:53;;;;;;;5.55;5.03;;;819.90;1049.60;;;;;;5068869;28;20040;-64
2021/07/04 11:56:18;;;;;;;6.85;4.85;;;819.90;1024.00;;;;;;5068666;28;20112;-61
2021/07/04 11:58:44;;;;;;;7.45;5.57;;;820.10;1049.60;;;;;;5068946;28;20556;-58
2021/07/04 12:01:22;;;;;;;8.38;4.80;;;820.10;1075.20;;;;;;5068789;28;20029;-59
2021/07/04 12:03:49;;;;;;;7.10;4.85;;;820.10;1075.20;;;;;;5069483;28;20033;-67
2021/07/04 12:06:15;;;;;;;5.38;4.68;;;819.90;1075.20;;;;;;5069319;28;20115;-56
2021/07/04 12:08:58;;;;;;;5.35;4.80;;;819.80;1100.80;;;;;;5068965;28;20033;-63
2021/07/04 12:11:40;;;;;;;6.22;5.50;;;819.80;1100.80;;;;;;5068814;28;20032;-59
2021/07/04 12:14:25;;;;;;;6.00;5.50;;;819.90;1126.40;;;;;;5069040;28;20523;-67
2021/07/04 12:16:51;;;;;;;5.88;5.30;;;819.80;1126.40;;;;;;5068994;28;20029;-57
2021/07/04 12:19:36;;;;;;;6.13;5.18;;;820.10;1126.40;;;;;;5068973;28;20029;-61
2021/07/04 12:22:03;;;;;;;5.88;4.95;;;844.90;1126.40;;;;;;5068351;28;20035;-64
2021/07/04 12:24:39;;;;;;;7.53;5.18;;;845.00;1100.80;;;;;;5067422;28;20406;-60
2021/07/04 12:27:06;;;;;;;5.28;4.78;;;844.90;1100.80;;;;;;5068430;28;20056;-66